sensor_id;sensor_type;location;lat;lon;timestamp;P1;durP1;ratioP1;P2;durP2;ratioP2
57891;SDS011;43708;48.828;9.166;2023-05-06T00:00:57;2.20;;;1.05;;
57891;SDS011;43708;48.828;9.166;2023-05-06T00:03:23;1.25;;;1.00;;
57891;SDS011;43708;48.828;9.166;2023-05-06T00:05:49;1.10;;;1.00;;
57891;SDS011;43708;48.828;9.166;2023-05-06T00:08:14;0.90;;;0.80;;
57891;SDS011;43708;48.828;9.166;2023-05-06T00:10:40;1.20;;;1.10;;
57891;SDS011;43708;48.828;9.166;2023-05-06T00:13:06;1.65;;;1.17;;
57891;SDS011;43708;48.828;9.166;2023-05-06T00:15:32;1.48;;;1.17;;
57891;SDS011;43708;48.828;9.166;2023-05-06T00:17:58;0.77;;;0.77;;
57891;SDS011;43708;48.828;9.166;2023-05-06T00:20:24;1.27;;;1.10;;
57891;SDS011;43708;48.828;9.166;2023-05-06T00:22:50;1.10;;;1.00;;
57891;SDS011;43708;48.828;9.166;2023-05-06T00:25:15;0.90;;;0.80;;
57891;SDS011;43708;48.828;9.166;2023-05-06T00:27:41;1.00;;;0.90;;
57891;SDS011;43708;48.828;9.166;2023-05-06T00:30:07;0.95;;;0.82;;
57891;SDS011;43708;48.828;9.166;2023-05-06T00:32:33;1.40;;;0.98;;
57891;SDS011;43708;48.828;9.166;2023-05-06T00:34:58;1.00;;;0.90;;
57891;SDS011;43708;48.828;9.166;2023-05-06T00:37:24;1.13;;;0.93;;
57891;SDS011;43708;48.828;9.166;2023-05-06T00:39:49;0.80;;;0.80;;
57891;SDS011;43708;48.828;9.166;2023-05-06T00:42:15;1.30;;;1.10;;
57891;SDS011;43708;48.828;9.166;2023-05-06T00:44:40;1.10;;;1.00;;
57891;SDS011;43708;48.828;9.166;2023-05-06T00:47:06;1.20;;;1.05;;
57891;SDS011;43708;48.828;9.166;2023-05-06T00:49:32;1.23;;;1.00;;
57891;SDS011;43708;48.828;9.166;2023-05-06T00:51:58;1.15;;;0.82;;
57891;SDS011;43708;48.828;9.166;2023-05-06T00:54:24;0.93;;;0.90;;
57891;SDS011;43708;48.828;9.166;2023-05-06T00:56:50;1.05;;;0.77;;
57891;SDS011;43708;48.828;9.166;2023-05-06T00:59:16;1.63;;;0.85;;
57891;SDS011;43708;48.828;9.166;2023-05-06T01:01:42;1.00;;;0.80;;
57891;SDS011;43708;48.828;9.166;2023-05-06T01:04:08;1.30;;;1.02;;
57891;SDS011;43708;48.828;9.166;2023-05-06T01:09:25;1.20;;;0.82;;
57891;SDS011;43708;48.828;9.166;2023-05-06T01:12:05;0.80;;;0.80;;
57891;SDS011;43708;48.828;9.166;2023-05-06T01:14:38;0.82;;;0.73;;
57891;SDS011;43708;48.828;9.166;2023-05-06T01:17:13;1.50;;;1.10;;
57891;SDS011;43708;48.828;9.166;2023-05-06T01:19:43;1.05;;;0.95;;
57891;SDS011;43708;48.828;9.166;2023-05-06T01:22:13;0.70;;;0.70;;
57891;SDS011;43708;48.828;9.166;2023-05-06T01:24:40;0.80;;;0.80;;
57891;SDS011;43708;48.828;9.166;2023-05-06T01:27:07;1.20;;;0.77;;
57891;SDS011;43708;48.828;9.166;2023-05-06T01:29:34;1.27;;;1.00;;
57891;SDS011;43708;48.828;9.166;2023-05-06T01:32:07;1.42;;;0.90;;
57891;SDS011;43708;48.828;9.166;2023-05-06T01:35:23;0.82;;;0.80;;
57891;SDS011;43708;48.828;9.166;2023-05-06T01:37:33;1.20;;;0.90;;
57891;SDS011;43708;48.828;9.166;2023-05-06T01:40:18;0.80;;;0.80;;
57891;SDS011;43708;48.828;9.166;2023-05-06T01:42:46;0.80;;;0.70;;
57891;SDS011;43708;48.828;9.166;2023-05-06T01:45:15;1.05;;;0.98;;
57891;SDS011;43708;48.828;9.166;2023-05-06T01:47:43;1.15;;;0.88;;
57891;SDS011;43708;48.828;9.166;2023-05-06T01:50:10;0.90;;;0.80;;
57891;SDS011;43708;48.828;9.166;2023-05-06T01:52:36;1.20;;;0.75;;
57891;SDS011;43708;48.828;9.166;2023-05-06T01:55:02;1.23;;;1.05;;
57891;SDS011;43708;48.828;9.166;2023-05-06T01:57:28;0.95;;;0.75;;
57891;SDS011;43708;48.828;9.166;2023-05-06T01:59:53;0.98;;;0.90;;
57891;SDS011;43708;48.828;9.166;2023-05-06T02:02:19;0.68;;;0.68;;
57891;SDS011;43708;48.828;9.166;2023-05-06T02:04:45;0.93;;;0.90;;
57891;SDS011;43708;48.828;9.166;2023-05-06T02:07:10;0.88;;;0.80;;
57891;SDS011;43708;48.828;9.166;2023-05-06T02:09:36;0.80;;;0.80;;
57891;SDS011;43708;48.828;9.166;2023-05-06T02:12:02;0.95;;;0.90;;
57891;SDS011;43708;48.828;9.166;2023-05-06T02:14:27;1.08;;;0.98;;
57891;SDS011;43708;48.828;9.166;2023-05-06T02:16:53;1.33;;;0.80;;
57891;SDS011;43708;48.828;9.166;2023-05-06T02:19:19;0.73;;;0.73;;
57891;SDS011;43708;48.828;9.166;2023-05-06T02:21:45;0.88;;;0.80;;
57891;SDS011;43708;48.828;9.166;2023-05-06T02:24:10;0.82;;;0.73;;
57891;SDS011;43708;48.828;9.166;2023-05-06T02:26:36;0.70;;;0.70;;
57891;SDS011;43708;48.828;9.166;2023-05-06T02:29:02;1.00;;;0.77;;
57891;SDS011;43708;48.828;9.166;2023-05-06T02:31:27;1.10;;;1.00;;
57891;SDS011;43708;48.828;9.166;2023-05-06T02:33:53;0.80;;;0.80;;
57891;SDS011;43708;48.828;9.166;2023-05-06T02:36:18;0.88;;;0.88;;
57891;SDS011;43708;48.828;9.166;2023-05-06T02:38:44;0.80;;;0.80;;
57891;SDS011;43708;48.828;9.166;2023-05-06T02:41:09;1.17;;;0.93;;
57891;SDS011;43708;48.828;9.166;2023-05-06T02:43:35;0.70;;;0.70;;
57891;SDS011;43708;48.828;9.166;2023-05-06T02:46:01;1.02;;;0.90;;
57891;SDS011;43708;48.828;9.166;2023-05-06T02:48:26;1.75;;;1.00;;
57891;SDS011;43708;48.828;9.166;2023-05-06T02:50:52;0.93;;;0.80;;
57891;SDS011;43708;48.828;9.166;2023-05-06T02:53:17;0.60;;;0.60;;
57891;SDS011;43708;48.828;9.166;2023-05-06T02:55:43;0.88;;;0.77;;
57891;SDS011;43708;48.828;9.166;2023-05-06T02:58:08;0.68;;;0.68;;
57891;SDS011;43708;48.828;9.166;2023-05-06T03:00:34;0.98;;;0.88;;
57891;SDS011;43708;48.828;9.166;2023-05-06T03:03:00;1.10;;;0.80;;
57891;SDS011;43708;48.828;9.166;2023-05-06T03:05:25;1.30;;;0.60;;
57891;SDS011;43708;48.828;9.166;2023-05-06T03:07:51;1.00;;;0.90;;
57891;SDS011;43708;48.828;9.166;2023-05-06T03:10:17;0.73;;;0.70;;
57891;SDS011;43708;48.828;9.166;2023-05-06T03:12:43;0.90;;;0.90;;
57891;SDS011;43708;48.828;9.166;2023-05-06T03:15:08;0.80;;;0.80;;
57891;SDS011;43708;48.828;9.166;2023-05-06T03:17:35;0.68;;;0.68;;
57891;SDS011;43708;48.828;9.166;2023-05-06T03:20:01;0.70;;;0.70;;
57891;SDS011;43708;48.828;9.166;2023-05-06T03:22:27;0.73;;;0.70;;
57891;SDS011;43708;48.828;9.166;2023-05-06T03:24:53;0.60;;;0.60;;
57891;SDS011;43708;48.828;9.166;2023-05-06T03:27:18;0.70;;;0.70;;
57891;SDS011;43708;48.828;9.166;2023-05-06T03:29:44;0.70;;;0.70;;
57891;SDS011;43708;48.828;9.166;2023-05-06T03:32:10;0.70;;;0.70;;
57891;SDS011;43708;48.828;9.166;2023-05-06T03:34:35;0.90;;;0.80;;
57891;SDS011;43708;48.828;9.166;2023-05-06T03:37:01;0.88;;;0.88;;
57891;SDS011;43708;48.828;9.166;2023-05-06T03:39:27;0.60;;;0.60;;
57891;SDS011;43708;48.828;9.166;2023-05-06T03:41:52;0.75;;;0.70;;
57891;SDS011;43708;48.828;9.166;2023-05-06T03:44:18;0.65;;;0.65;;
57891;SDS011;43708;48.828;9.166;2023-05-06T03:46:43;0.68;;;0.52;;
57891;SDS011;43708;48.828;9.166;2023-05-06T03:49:09;0.85;;;0.80;;
57891;SDS011;43708;48.828;9.166;2023-05-06T03:51:34;0.60;;;0.60;;
57891;SDS011;43708;48.828;9.166;2023-05-06T03:54:00;0.70;;;0.70;;
57891;SDS011;43708;48.828;9.166;2023-05-06T03:56:26;0.90;;;0.57;;
57891;SDS011;43708;48.828;9.166;2023-05-06T03:58:51;1.05;;;0.90;;
57891;SDS011;43708;48.828;9.166;2023-05-06T04:01:18;0.70;;;0.70;;
57891;SDS011;43708;48.828;9.166;2023-05-06T04:03:44;1.10;;;1.00;;
57891;SDS011;43708;48.828;9.166;2023-05-06T04:06:10;0.98;;;0.68;;
57891;SDS011;43708;48.828;9.166;2023-05-06T04:08:35;0.80;;;0.60;;
57891;SDS011;43708;48.828;9.166;2023-05-06T04:11:04;0.70;;;0.70;;
57891;SDS011;43708;48.828;9.166;2023-05-06T04:13:31;0.80;;;0.80;;
57891;SDS011;43708;48.828;9.166;2023-05-06T04:16:00;1.67;;;0.70;;
57891;SDS011;43708;48.828;9.166;2023-05-06T04:18:26;0.70;;;0.60;;
57891;SDS011;43708;48.828;9.166;2023-05-06T04:20:52;0.80;;;0.80;;
57891;SDS011;43708;48.828;9.166;2023-05-06T04:23:17;0.77;;;0.77;;
57891;SDS011;43708;48.828;9.166;2023-05-06T04:25:46;0.60;;;0.60;;
57891;SDS011;43708;48.828;9.166;2023-05-06T04:28:14;0.68;;;0.68;;
57891;SDS011;43708;48.828;9.166;2023-05-06T04:30:41;0.70;;;0.70;;
57891;SDS011;43708;48.828;9.166;2023-05-06T04:33:07;0.77;;;0.77;;
57891;SDS011;43708;48.828;9.166;2023-05-06T04:35:33;0.63;;;0.63;;
57891;SDS011;43708;48.828;9.166;2023-05-06T04:37:59;0.70;;;0.70;;
57891;SDS011;43708;48.828;9.166;2023-05-06T04:40:25;0.77;;;0.77;;
57891;SDS011;43708;48.828;9.166;2023-05-06T04:42:51;0.60;;;0.60;;
57891;SDS011;43708;48.828;9.166;2023-05-06T04:45:17;0.60;;;0.60;;
57891;SDS011;43708;48.828;9.166;2023-05-06T04:47:42;0.60;;;0.60;;
57891;SDS011;43708;48.828;9.166;2023-05-06T04:50:08;0.75;;;0.60;;
57891;SDS011;43708;48.828;9.166;2023-05-06T04:52:34;0.77;;;0.60;;
57891;SDS011;43708;48.828;9.166;2023-05-06T04:55:00;0.52;;;0.52;;
57891;SDS011;43708;48.828;9.166;2023-05-06T04:57:26;0.70;;;0.70;;
57891;SDS011;43708;48.828;9.166;2023-05-06T04:59:52;0.65;;;0.65;;
57891;SDS011;43708;48.828;9.166;2023-05-06T05:02:17;0.95;;;0.68;;
57891;SDS011;43708;48.828;9.166;2023-05-06T05:04:43;0.65;;;0.65;;
57891;SDS011;43708;48.828;9.166;2023-05-06T05:07:08;0.73;;;0.63;;
57891;SDS011;43708;48.828;9.166;2023-05-06T05:09:34;0.52;;;0.52;;
57891;SDS011;43708;48.828;9.166;2023-05-06T05:12:02;0.40;;;0.40;;
57891;SDS011;43708;48.828;9.166;2023-05-06T05:14:28;0.80;;;0.70;;
57891;SDS011;43708;48.828;9.166;2023-05-06T05:16:54;0.60;;;0.60;;
57891;SDS011;43708;48.828;9.166;2023-05-06T05:19:20;0.60;;;0.60;;
57891;SDS011;43708;48.828;9.166;2023-05-06T05:21:45;0.60;;;0.60;;
57891;SDS011;43708;48.828;9.166;2023-05-06T05:24:11;0.60;;;0.60;;
57891;SDS011;43708;48.828;9.166;2023-05-06T05:26:37;0.50;;;0.50;;
57891;SDS011;43708;48.828;9.166;2023-05-06T05:29:02;0.70;;;0.60;;
57891;SDS011;43708;48.828;9.166;2023-05-06T05:31:28;0.60;;;0.60;;
57891;SDS011;43708;48.828;9.166;2023-05-06T05:33:55;0.80;;;0.80;;
57891;SDS011;43708;48.828;9.166;2023-05-06T05:36:21;1.10;;;0.95;;
57891;SDS011;43708;48.828;9.166;2023-05-06T05:38:47;0.85;;;0.70;;
57891;SDS011;43708;48.828;9.166;2023-05-06T05:41:13;1.75;;;1.65;;
57891;SDS011;43708;48.828;9.166;2023-05-06T05:43:38;2.13;;;1.95;;
57891;SDS011;43708;48.828;9.166;2023-05-06T05:46:04;2.50;;;2.25;;
57891;SDS011;43708;48.828;9.166;2023-05-06T05:48:29;2.45;;;2.25;;
57891;SDS011;43708;48.828;9.166;2023-05-06T05:50:56;3.35;;;2.90;;
57891;SDS011;43708;48.828;9.166;2023-05-06T05:53:22;2.78;;;2.58;;
57891;SDS011;43708;48.828;9.166;2023-05-06T05:55:48;2.25;;;2.05;;
57891;SDS011;43708;48.828;9.166;2023-05-06T05:58:13;2.53;;;2.20;;
57891;SDS011;43708;48.828;9.166;2023-05-06T06:00:39;2.60;;;2.40;;
57891;SDS011;43708;48.828;9.166;2023-05-06T06:03:05;7.15;;;2.70;;
57891;SDS011;43708;48.828;9.166;2023-05-06T06:05:30;2.60;;;2.40;;
57891;SDS011;43708;48.828;9.166;2023-05-06T06:07:56;2.92;;;2.63;;
57891;SDS011;43708;48.828;9.166;2023-05-06T06:10:23;2.88;;;2.67;;
57891;SDS011;43708;48.828;9.166;2023-05-06T06:12:48;3.13;;;2.83;;
57891;SDS011;43708;48.828;9.166;2023-05-06T06:15:14;2.63;;;2.42;;
57891;SDS011;43708;48.828;9.166;2023-05-06T06:17:39;2.45;;;2.10;;
57891;SDS011;43708;48.828;9.166;2023-05-06T06:20:05;2.40;;;2.25;;
57891;SDS011;43708;48.828;9.166;2023-05-06T06:22:32;2.20;;;2.10;;
57891;SDS011;43708;48.828;9.166;2023-05-06T06:24:57;2.60;;;2.40;;
57891;SDS011;43708;48.828;9.166;2023-05-06T06:27:23;2.60;;;2.40;;
57891;SDS011;43708;48.828;9.166;2023-05-06T06:29:48;2.80;;;2.60;;
57891;SDS011;43708;48.828;9.166;2023-05-06T06:32:14;2.58;;;2.38;;
57891;SDS011;43708;48.828;9.166;2023-05-06T06:34:40;3.92;;;2.40;;
57891;SDS011;43708;48.828;9.166;2023-05-06T06:37:08;2.85;;;2.63;;
57891;SDS011;43708;48.828;9.166;2023-05-06T06:39:34;3.15;;;2.40;;
57891;SDS011;43708;48.828;9.166;2023-05-06T06:42:00;2.83;;;2.63;;
57891;SDS011;43708;48.828;9.166;2023-05-06T06:44:28;2.88;;;2.60;;
57891;SDS011;43708;48.828;9.166;2023-05-06T06:46:54;3.13;;;2.78;;
57891;SDS011;43708;48.828;9.166;2023-05-06T06:49:20;2.55;;;2.35;;
57891;SDS011;43708;48.828;9.166;2023-05-06T06:51:45;2.40;;;2.20;;
57891;SDS011;43708;48.828;9.166;2023-05-06T06:54:11;2.78;;;2.58;;
57891;SDS011;43708;48.828;9.166;2023-05-06T06:56:36;2.40;;;2.20;;
57891;SDS011;43708;48.828;9.166;2023-05-06T06:59:02;2.70;;;2.40;;
57891;SDS011;43708;48.828;9.166;2023-05-06T07:01:28;3.03;;;2.28;;
57891;SDS011;43708;48.828;9.166;2023-05-06T07:03:53;2.10;;;2.00;;
57891;SDS011;43708;48.828;9.166;2023-05-06T07:06:19;2.38;;;2.15;;
57891;SDS011;43708;48.828;9.166;2023-05-06T07:08:44;3.22;;;2.35;;
57891;SDS011;43708;48.828;9.166;2023-05-06T07:11:10;2.13;;;1.92;;
57891;SDS011;43708;48.828;9.166;2023-05-06T07:13:38;2.08;;;1.80;;
57891;SDS011;43708;48.828;9.166;2023-05-06T07:16:04;1.83;;;1.73;;
57891;SDS011;43708;48.828;9.166;2023-05-06T07:18:29;1.55;;;1.40;;
57891;SDS011;43708;48.828;9.166;2023-05-06T07:20:55;1.02;;;0.98;;
57891;SDS011;43708;48.828;9.166;2023-05-06T07:23:20;1.63;;;1.20;;
57891;SDS011;43708;48.828;9.166;2023-05-06T07:25:46;1.20;;;1.10;;
57891;SDS011;43708;48.828;9.166;2023-05-06T07:28:12;1.40;;;1.30;;
57891;SDS011;43708;48.828;9.166;2023-05-06T07:30:38;1.70;;;1.60;;
57891;SDS011;43708;48.828;9.166;2023-05-06T07:33:04;1.58;;;1.48;;
57891;SDS011;43708;48.828;9.166;2023-05-06T07:35:29;1.15;;;1.08;;
57891;SDS011;43708;48.828;9.166;2023-05-06T07:37:55;1.50;;;1.40;;
57891;SDS011;43708;48.828;9.166;2023-05-06T07:40:20;1.20;;;1.10;;
57891;SDS011;43708;48.828;9.166;2023-05-06T07:42:46;1.80;;;1.70;;
57891;SDS011;43708;48.828;9.166;2023-05-06T07:45:12;1.40;;;1.30;;
57891;SDS011;43708;48.828;9.166;2023-05-06T07:47:39;1.88;;;1.77;;
57891;SDS011;43708;48.828;9.166;2023-05-06T07:50:05;1.60;;;1.50;;
57891;SDS011;43708;48.828;9.166;2023-05-06T07:52:31;1.70;;;1.60;;
57891;SDS011;43708;48.828;9.166;2023-05-06T07:54:56;1.60;;;1.50;;
57891;SDS011;43708;48.828;9.166;2023-05-06T07:57:22;1.10;;;1.10;;
57891;SDS011;43708;48.828;9.166;2023-05-06T07:59:48;1.50;;;1.40;;
57891;SDS011;43708;48.828;9.166;2023-05-06T08:02:15;1.40;;;1.30;;
57891;SDS011;43708;48.828;9.166;2023-05-06T08:04:41;1.10;;;1.00;;
57891;SDS011;43708;48.828;9.166;2023-05-06T08:07:07;0.88;;;0.88;;
57891;SDS011;43708;48.828;9.166;2023-05-06T08:09:33;1.00;;;0.98;;
57891;SDS011;43708;48.828;9.166;2023-05-06T08:11:59;0.85;;;0.82;;
57891;SDS011;43708;48.828;9.166;2023-05-06T08:14:25;1.27;;;1.23;;
57891;SDS011;43708;48.828;9.166;2023-05-06T08:16:51;1.60;;;1.50;;
57891;SDS011;43708;48.828;9.166;2023-05-06T08:19:17;2.30;;;1.65;;
57891;SDS011;43708;48.828;9.166;2023-05-06T08:21:42;1.30;;;1.20;;
57891;SDS011;43708;48.828;9.166;2023-05-06T08:24:08;1.38;;;1.27;;
57891;SDS011;43708;48.828;9.166;2023-05-06T08:26:35;1.25;;;1.15;;
57891;SDS011;43708;48.828;9.166;2023-05-06T08:29:00;1.48;;;1.38;;
57891;SDS011;43708;48.828;9.166;2023-05-06T08:31:27;1.20;;;1.10;;
57891;SDS011;43708;48.828;9.166;2023-05-06T08:33:53;1.20;;;1.10;;
57891;SDS011;43708;48.828;9.166;2023-05-06T08:36:18;1.17;;;1.10;;
57891;SDS011;43708;48.828;9.166;2023-05-06T08:38:44;1.25;;;1.15;;
57891;SDS011;43708;48.828;9.166;2023-05-06T08:41:14;1.05;;;0.95;;
57891;SDS011;43708;48.828;9.166;2023-05-06T08:43:42;1.15;;;1.05;;
57891;SDS011;43708;48.828;9.166;2023-05-06T08:46:10;1.30;;;1.20;;
57891;SDS011;43708;48.828;9.166;2023-05-06T08:48:37;1.50;;;1.40;;
57891;SDS011;43708;48.828;9.166;2023-05-06T08:51:03;1.50;;;1.40;;
57891;SDS011;43708;48.828;9.166;2023-05-06T08:53:29;1.10;;;1.00;;
57891;SDS011;43708;48.828;9.166;2023-05-06T08:55:57;1.27;;;1.17;;
57891;SDS011;43708;48.828;9.166;2023-05-06T08:58:28;1.38;;;1.27;;
57891;SDS011;43708;48.828;9.166;2023-05-06T09:00:58;1.33;;;1.15;;
57891;SDS011;43708;48.828;9.166;2023-05-06T09:03:24;1.05;;;1.05;;
57891;SDS011;43708;48.828;9.166;2023-05-06T09:05:50;1.30;;;1.20;;
57891;SDS011;43708;48.828;9.166;2023-05-06T09:08:16;1.50;;;1.40;;
57891;SDS011;43708;48.828;9.166;2023-05-06T09:10:42;1.33;;;1.23;;
57891;SDS011;43708;48.828;9.166;2023-05-06T09:13:15;1.33;;;1.23;;
57891;SDS011;43708;48.828;9.166;2023-05-06T09:15:44;1.42;;;1.17;;
57891;SDS011;43708;48.828;9.166;2023-05-06T09:18:11;1.30;;;1.20;;
57891;SDS011;43708;48.828;9.166;2023-05-06T09:20:44;0.95;;;0.95;;
57891;SDS011;43708;48.828;9.166;2023-05-06T09:23:12;0.80;;;0.80;;
57891;SDS011;43708;48.828;9.166;2023-05-06T09:25:39;1.20;;;1.10;;
57891;SDS011;43708;48.828;9.166;2023-05-06T09:28:07;1.40;;;1.20;;
57891;SDS011;43708;48.828;9.166;2023-05-06T09:30:37;1.17;;;1.08;;
57891;SDS011;43708;48.828;9.166;2023-05-06T09:33:04;1.20;;;1.10;;
57891;SDS011;43708;48.828;9.166;2023-05-06T09:35:40;1.40;;;1.30;;
57891;SDS011;43708;48.828;9.166;2023-05-06T09:38:07;1.40;;;1.30;;
57891;SDS011;43708;48.828;9.166;2023-05-06T09:40:33;1.00;;;0.90;;
57891;SDS011;43708;48.828;9.166;2023-05-06T09:43:00;0.90;;;0.90;;
57891;SDS011;43708;48.828;9.166;2023-05-06T09:45:26;1.30;;;1.20;;
57891;SDS011;43708;48.828;9.166;2023-05-06T09:47:53;1.50;;;1.40;;
57891;SDS011;43708;48.828;9.166;2023-05-06T09:50:20;2.40;;;1.38;;
57891;SDS011;43708;48.828;9.166;2023-05-06T09:52:47;1.98;;;1.20;;
57891;SDS011;43708;48.828;9.166;2023-05-06T09:55:13;1.42;;;1.33;;
57891;SDS011;43708;48.828;9.166;2023-05-06T09:57:41;1.40;;;1.30;;
57891;SDS011;43708;48.828;9.166;2023-05-06T10:00:08;1.50;;;1.30;;
57891;SDS011;43708;48.828;9.166;2023-05-06T10:02:36;1.17;;;1.08;;
57891;SDS011;43708;48.828;9.166;2023-05-06T10:05:04;1.63;;;1.20;;
57891;SDS011;43708;48.828;9.166;2023-05-06T10:07:30;1.10;;;1.10;;
57891;SDS011;43708;48.828;9.166;2023-05-06T10:09:57;1.13;;;1.02;;
57891;SDS011;43708;48.828;9.166;2023-05-06T10:12:23;1.48;;;1.38;;
57891;SDS011;43708;48.828;9.166;2023-05-06T10:14:49;1.13;;;1.00;;
57891;SDS011;43708;48.828;9.166;2023-05-06T10:17:15;1.38;;;1.27;;
57891;SDS011;43708;48.828;9.166;2023-05-06T10:19:43;1.52;;;1.42;;
57891;SDS011;43708;48.828;9.166;2023-05-06T10:24:56;1.58;;;1.48;;
57891;SDS011;43708;48.828;9.166;2023-05-06T10:27:23;1.10;;;1.02;;
57891;SDS011;43708;48.828;9.166;2023-05-06T10:29:53;1.20;;;1.10;;
57891;SDS011;43708;48.828;9.166;2023-05-06T10:32:22;1.30;;;1.20;;
57891;SDS011;43708;48.828;9.166;2023-05-06T10:34:53;1.00;;;0.98;;
57891;SDS011;43708;48.828;9.166;2023-05-06T10:37:24;1.60;;;1.50;;
57891;SDS011;43708;48.828;9.166;2023-05-06T10:39:52;1.50;;;1.40;;
57891;SDS011;43708;48.828;9.166;2023-05-06T10:42:24;1.40;;;1.30;;
57891;SDS011;43708;48.828;9.166;2023-05-06T10:44:59;1.42;;;1.33;;
57891;SDS011;43708;48.828;9.166;2023-05-06T10:47:27;1.40;;;1.30;;
57891;SDS011;43708;48.828;9.166;2023-05-06T10:50:20;1.33;;;1.23;;
57891;SDS011;43708;48.828;9.166;2023-05-06T10:52:53;1.05;;;1.05;;
57891;SDS011;43708;48.828;9.166;2023-05-06T10:55:30;1.40;;;1.30;;
57891;SDS011;43708;48.828;9.166;2023-05-06T11:00:34;1.05;;;0.82;;
57891;SDS011;43708;48.828;9.166;2023-05-06T11:03:01;1.40;;;1.20;;
57891;SDS011;43708;48.828;9.166;2023-05-06T11:05:30;1.30;;;1.20;;
57891;SDS011;43708;48.828;9.166;2023-05-06T11:08:05;1.40;;;1.30;;
57891;SDS011;43708;48.828;9.166;2023-05-06T11:10:35;1.17;;;1.08;;
57891;SDS011;43708;48.828;9.166;2023-05-06T11:15:46;1.55;;;1.45;;
57891;SDS011;43708;48.828;9.166;2023-05-06T11:21:04;0.90;;;0.90;;
57891;SDS011;43708;48.828;9.166;2023-05-06T11:26:16;1.30;;;1.20;;
57891;SDS011;43708;48.828;9.166;2023-05-06T11:28:42;0.93;;;0.93;;
57891;SDS011;43708;48.828;9.166;2023-05-06T11:31:09;1.33;;;1.05;;
57891;SDS011;43708;48.828;9.166;2023-05-06T11:33:36;1.17;;;1.08;;
57891;SDS011;43708;48.828;9.166;2023-05-06T11:36:02;1.35;;;1.05;;
57891;SDS011;43708;48.828;9.166;2023-05-06T11:38:41;1.33;;;1.20;;
57891;SDS011;43708;48.828;9.166;2023-05-06T11:41:08;1.00;;;0.90;;
57891;SDS011;43708;48.828;9.166;2023-05-06T11:43:34;1.30;;;1.20;;
57891;SDS011;43708;48.828;9.166;2023-05-06T11:46:00;0.70;;;0.70;;
57891;SDS011;43708;48.828;9.166;2023-05-06T11:48:25;0.70;;;0.70;;
57891;SDS011;43708;48.828;9.166;2023-05-06T11:50:51;0.82;;;0.80;;
57891;SDS011;43708;48.828;9.166;2023-05-06T11:53:17;0.95;;;0.88;;
57891;SDS011;43708;48.828;9.166;2023-05-06T11:55:45;0.70;;;0.70;;
57891;SDS011;43708;48.828;9.166;2023-05-06T11:58:33;1.05;;;0.90;;
57891;SDS011;43708;48.828;9.166;2023-05-06T12:00:58;1.67;;;1.00;;
57891;SDS011;43708;48.828;9.166;2023-05-06T12:03:25;0.75;;;0.75;;
57891;SDS011;43708;48.828;9.166;2023-05-06T12:05:52;1.25;;;0.80;;
57891;SDS011;43708;48.828;9.166;2023-05-06T12:10:59;0.80;;;0.80;;
57891;SDS011;43708;48.828;9.166;2023-05-06T12:13:27;0.60;;;0.60;;
57891;SDS011;43708;48.828;9.166;2023-05-06T12:15:57;0.95;;;0.85;;
57891;SDS011;43708;48.828;9.166;2023-05-06T12:18:23;0.70;;;0.70;;
57891;SDS011;43708;48.828;9.166;2023-05-06T12:20:52;0.60;;;0.60;;
57891;SDS011;43708;48.828;9.166;2023-05-06T12:23:18;0.82;;;0.82;;
57891;SDS011;43708;48.828;9.166;2023-05-06T12:25:45;0.75;;;0.75;;
57891;SDS011;43708;48.828;9.166;2023-05-06T12:28:24;0.70;;;0.70;;
57891;SDS011;43708;48.828;9.166;2023-05-06T12:30:51;0.80;;;0.80;;
57891;SDS011;43708;48.828;9.166;2023-05-06T12:33:16;0.80;;;0.80;;
57891;SDS011;43708;48.828;9.166;2023-05-06T12:35:42;1.00;;;1.00;;
57891;SDS011;43708;48.828;9.166;2023-05-06T12:38:15;1.50;;;1.05;;
57891;SDS011;43708;48.828;9.166;2023-05-06T12:40:42;1.00;;;1.00;;
57891;SDS011;43708;48.828;9.166;2023-05-06T12:43:10;1.00;;;1.00;;
57891;SDS011;43708;48.828;9.166;2023-05-06T12:45:36;0.82;;;0.82;;
57891;SDS011;43708;48.828;9.166;2023-05-06T12:48:03;1.20;;;1.10;;
57891;SDS011;43708;48.828;9.166;2023-05-06T12:50:34;1.20;;;1.10;;
57891;SDS011;43708;48.828;9.166;2023-05-06T12:53:02;1.33;;;1.00;;
57891;SDS011;43708;48.828;9.166;2023-05-06T12:55:29;0.80;;;0.80;;
57891;SDS011;43708;48.828;9.166;2023-05-06T12:57:56;0.90;;;0.90;;
57891;SDS011;43708;48.828;9.166;2023-05-06T13:00:22;1.15;;;1.05;;
57891;SDS011;43708;48.828;9.166;2023-05-06T13:02:47;0.90;;;0.80;;
57891;SDS011;43708;48.828;9.166;2023-05-06T13:05:13;1.00;;;0.90;;
57891;SDS011;43708;48.828;9.166;2023-05-06T13:07:39;0.90;;;0.90;;
57891;SDS011;43708;48.828;9.166;2023-05-06T13:10:05;1.00;;;0.90;;
57891;SDS011;43708;48.828;9.166;2023-05-06T13:12:31;0.85;;;0.85;;
57891;SDS011;43708;48.828;9.166;2023-05-06T13:14:57;0.90;;;0.90;;
57891;SDS011;43708;48.828;9.166;2023-05-06T13:17:24;0.90;;;0.90;;
57891;SDS011;43708;48.828;9.166;2023-05-06T13:19:50;1.05;;;1.05;;
57891;SDS011;43708;48.828;9.166;2023-05-06T13:22:16;1.08;;;1.00;;
57891;SDS011;43708;48.828;9.166;2023-05-06T13:24:42;1.10;;;1.00;;
57891;SDS011;43708;48.828;9.166;2023-05-06T13:27:08;0.90;;;0.90;;
57891;SDS011;43708;48.828;9.166;2023-05-06T13:29:33;1.33;;;1.02;;
57891;SDS011;43708;48.828;9.166;2023-05-06T13:31:59;1.40;;;1.15;;
57891;SDS011;43708;48.828;9.166;2023-05-06T13:34:25;0.95;;;0.93;;
57891;SDS011;43708;48.828;9.166;2023-05-06T13:36:51;1.20;;;1.00;;
57891;SDS011;43708;48.828;9.166;2023-05-06T13:39:18;1.63;;;1.10;;
57891;SDS011;43708;48.828;9.166;2023-05-06T13:41:45;1.10;;;1.00;;
57891;SDS011;43708;48.828;9.166;2023-05-06T13:44:11;0.80;;;0.80;;
57891;SDS011;43708;48.828;9.166;2023-05-06T13:46:37;1.20;;;1.10;;
57891;SDS011;43708;48.828;9.166;2023-05-06T13:49:03;1.10;;;1.00;;
57891;SDS011;43708;48.828;9.166;2023-05-06T13:51:29;0.90;;;0.90;;
57891;SDS011;43708;48.828;9.166;2023-05-06T13:53:57;0.70;;;0.70;;
57891;SDS011;43708;48.828;9.166;2023-05-06T13:56:23;0.98;;;0.90;;
57891;SDS011;43708;48.828;9.166;2023-05-06T13:58:48;3.83;;;1.35;;
57891;SDS011;43708;48.828;9.166;2023-05-06T14:01:14;0.90;;;0.90;;
57891;SDS011;43708;48.828;9.166;2023-05-06T14:03:39;1.13;;;1.05;;
57891;SDS011;43708;48.828;9.166;2023-05-06T14:06:06;0.90;;;0.90;;
57891;SDS011;43708;48.828;9.166;2023-05-06T14:08:32;0.88;;;0.88;;
57891;SDS011;43708;48.828;9.166;2023-05-06T14:10:58;1.02;;;0.80;;
57891;SDS011;43708;48.828;9.166;2023-05-06T14:13:23;1.58;;;0.60;;
57891;SDS011;43708;48.828;9.166;2023-05-06T14:15:49;0.80;;;0.80;;
57891;SDS011;43708;48.828;9.166;2023-05-06T14:18:14;1.35;;;0.80;;
57891;SDS011;43708;48.828;9.166;2023-05-06T14:20:40;1.65;;;0.77;;
57891;SDS011;43708;48.828;9.166;2023-05-06T14:23:06;0.85;;;0.70;;
57891;SDS011;43708;48.828;9.166;2023-05-06T14:25:31;1.40;;;0.80;;
57891;SDS011;43708;48.828;9.166;2023-05-06T14:27:57;1.17;;;0.90;;
57891;SDS011;43708;48.828;9.166;2023-05-06T14:30:23;0.60;;;0.60;;
57891;SDS011;43708;48.828;9.166;2023-05-06T14:32:49;2.28;;;0.70;;
57891;SDS011;43708;48.828;9.166;2023-05-06T14:35:16;0.70;;;0.70;;
57891;SDS011;43708;48.828;9.166;2023-05-06T14:37:42;1.00;;;1.00;;
57891;SDS011;43708;48.828;9.166;2023-05-06T14:40:08;1.08;;;0.88;;
57891;SDS011;43708;48.828;9.166;2023-05-06T14:42:34;1.42;;;0.95;;
57891;SDS011;43708;48.828;9.166;2023-05-06T14:45:00;2.35;;;1.10;;
57891;SDS011;43708;48.828;9.166;2023-05-06T14:47:25;1.77;;;1.08;;
57891;SDS011;43708;48.828;9.166;2023-05-06T14:49:51;1.02;;;0.88;;
57891;SDS011;43708;48.828;9.166;2023-05-06T14:52:17;1.23;;;1.00;;
57891;SDS011;43708;48.828;9.166;2023-05-06T14:54:42;1.17;;;0.80;;
57891;SDS011;43708;48.828;9.166;2023-05-06T14:57:08;1.10;;;1.00;;
57891;SDS011;43708;48.828;9.166;2023-05-06T14:59:34;1.23;;;0.90;;
57891;SDS011;43708;48.828;9.166;2023-05-06T15:02:00;1.20;;;0.82;;
57891;SDS011;43708;48.828;9.166;2023-05-06T15:04:25;0.73;;;0.70;;